sensor_id;sensor_type;location;lat;lon;timestamp;P1;durP1;ratioP1;P2;durP2;ratioP2
7531;SDS011;3807;49.030;8.714;2024-01-16T00:02:24;8.77;;;4.83;;
7531;SDS011;3807;49.030;8.714;2024-01-16T00:04:49;7.17;;;4.07;;
7531;SDS011;3807;49.030;8.714;2024-01-16T00:07:14;9.87;;;4.20;;
7531;SDS011;3807;49.030;8.714;2024-01-16T00:09:40;10.83;;;5.00;;
7531;SDS011;3807;49.030;8.714;2024-01-16T00:12:05;11.50;;;4.33;;
7531;SDS011;3807;49.030;8.714;2024-01-16T00:14:34;8.00;;;4.23;;
7531;SDS011;3807;49.030;8.714;2024-01-16T00:17:01;10.03;;;5.10;;
7531;SDS011;3807;49.030;8.714;2024-01-16T00:19:26;7.23;;;4.83;;
7531;SDS011;3807;49.030;8.714;2024-01-16T00:21:52;7.27;;;4.40;;
7531;SDS011;3807;49.030;8.714;2024-01-16T00:24:17;9.07;;;4.27;;
7531;SDS011;3807;49.030;8.714;2024-01-16T00:26:43;7.93;;;4.87;;
7531;SDS011;3807;49.030;8.714;2024-01-16T00:29:08;7.63;;;2.83;;
7531;SDS011;3807;49.030;8.714;2024-01-16T00:31:37;12.80;;;4.97;;
7531;SDS011;3807;49.030;8.714;2024-01-16T00:34:03;4.40;;;3.17;;
7531;SDS011;3807;49.030;8.714;2024-01-16T00:36:29;7.90;;;4.60;;
7531;SDS011;3807;49.030;8.714;2024-01-16T00:38:55;7.07;;;4.40;;
7531;SDS011;3807;49.030;8.714;2024-01-16T00:41:20;8.67;;;5.40;;
7531;SDS011;3807;49.030;8.714;2024-01-16T00:43:46;7.27;;;3.57;;
7531;SDS011;3807;49.030;8.714;2024-01-16T00:46:11;4.63;;;3.10;;
7531;SDS011;3807;49.030;8.714;2024-01-16T00:48:37;8.50;;;4.80;;
7531;SDS011;3807;49.030;8.714;2024-01-16T00:51:02;8.10;;;4.47;;
7531;SDS011;3807;49.030;8.714;2024-01-16T00:53:27;7.53;;;4.70;;
7531;SDS011;3807;49.030;8.714;2024-01-16T00:55:53;5.57;;;4.30;;
7531;SDS011;3807;49.030;8.714;2024-01-16T00:58:21;11.20;;;5.20;;
7531;SDS011;3807;49.030;8.714;2024-01-16T01:00:47;7.13;;;4.17;;
7531;SDS011;3807;49.030;8.714;2024-01-16T01:03:12;9.97;;;4.50;;
7531;SDS011;3807;49.030;8.714;2024-01-16T01:05:38;12.50;;;4.40;;
7531;SDS011;3807;49.030;8.714;2024-01-16T01:08:03;13.17;;;5.37;;
7531;SDS011;3807;49.030;8.714;2024-01-16T01:10:29;7.73;;;4.17;;
7531;SDS011;3807;49.030;8.714;2024-01-16T01:12:54;8.13;;;4.83;;
7531;SDS011;3807;49.030;8.714;2024-01-16T01:15:20;8.80;;;4.23;;
7531;SDS011;3807;49.030;8.714;2024-01-16T01:17:47;10.40;;;4.70;;
7531;SDS011;3807;49.030;8.714;2024-01-16T01:20:14;9.33;;;4.80;;
7531;SDS011;3807;49.030;8.714;2024-01-16T01:22:39;9.97;;;4.37;;
7531;SDS011;3807;49.030;8.714;2024-01-16T01:25:05;5.27;;;3.73;;
7531;SDS011;3807;49.030;8.714;2024-01-16T01:27:31;5.13;;;4.33;;
7531;SDS011;3807;49.030;8.714;2024-01-16T01:29:56;5.60;;;4.07;;
7531;SDS011;3807;49.030;8.714;2024-01-16T01:32:23;5.53;;;3.30;;
7531;SDS011;3807;49.030;8.714;2024-01-16T01:34:48;12.77;;;5.40;;
7531;SDS011;3807;49.030;8.714;2024-01-16T01:37:13;9.80;;;3.97;;
7531;SDS011;3807;49.030;8.714;2024-01-16T01:39:39;6.73;;;4.50;;
7531;SDS011;3807;49.030;8.714;2024-01-16T01:42:04;2.87;;;2.37;;
7531;SDS011;3807;49.030;8.714;2024-01-16T01:44:30;7.90;;;4.13;;
7531;SDS011;3807;49.030;8.714;2024-01-16T01:46:55;7.97;;;4.83;;
7531;SDS011;3807;49.030;8.714;2024-01-16T01:49:21;9.40;;;4.87;;
7531;SDS011;3807;49.030;8.714;2024-01-16T01:51:48;8.40;;;5.03;;
7531;SDS011;3807;49.030;8.714;2024-01-16T01:54:14;5.40;;;3.67;;
7531;SDS011;3807;49.030;8.714;2024-01-16T01:56:44;5.20;;;3.57;;
7531;SDS011;3807;49.030;8.714;2024-01-16T01:59:13;7.27;;;4.47;;
7531;SDS011;3807;49.030;8.714;2024-01-16T02:01:40;9.60;;;5.27;;
7531;SDS011;3807;49.030;8.714;2024-01-16T02:04:06;8.67;;;4.57;;
7531;SDS011;3807;49.030;8.714;2024-01-16T02:06:34;9.77;;;5.13;;
7531;SDS011;3807;49.030;8.714;2024-01-16T02:08:59;7.63;;;4.20;;
7531;SDS011;3807;49.030;8.714;2024-01-16T02:11:25;7.43;;;4.60;;
7531;SDS011;3807;49.030;8.714;2024-01-16T02:13:50;8.33;;;4.40;;
7531;SDS011;3807;49.030;8.714;2024-01-16T02:16:19;7.47;;;3.70;;
7531;SDS011;3807;49.030;8.714;2024-01-16T02:18:49;8.23;;;4.80;;
7531;SDS011;3807;49.030;8.714;2024-01-16T02:21:15;6.90;;;3.90;;
7531;SDS011;3807;49.030;8.714;2024-01-16T02:23:44;6.97;;;4.37;;
7531;SDS011;3807;49.030;8.714;2024-01-16T02:26:09;6.57;;;4.20;;
7531;SDS011;3807;49.030;8.714;2024-01-16T02:28:34;4.60;;;3.17;;
7531;SDS011;3807;49.030;8.714;2024-01-16T02:31:00;8.20;;;3.80;;
7531;SDS011;3807;49.030;8.714;2024-01-16T02:33:25;8.87;;;5.17;;
7531;SDS011;3807;49.030;8.714;2024-01-16T02:35:51;8.57;;;4.40;;
7531;SDS011;3807;49.030;8.714;2024-01-16T02:38:16;8.70;;;4.53;;
7531;SDS011;3807;49.030;8.714;2024-01-16T02:40:41;10.43;;;4.27;;
7531;SDS011;3807;49.030;8.714;2024-01-16T02:43:07;8.83;;;3.90;;
7531;SDS011;3807;49.030;8.714;2024-01-16T02:45:32;7.70;;;4.57;;
7531;SDS011;3807;49.030;8.714;2024-01-16T02:47:58;7.97;;;4.50;;
7531;SDS011;3807;49.030;8.714;2024-01-16T02:50:24;6.13;;;4.00;;
7531;SDS011;3807;49.030;8.714;2024-01-16T02:52:49;8.47;;;5.07;;
7531;SDS011;3807;49.030;8.714;2024-01-16T02:55:14;9.50;;;4.40;;
7531;SDS011;3807;49.030;8.714;2024-01-16T02:57:40;7.27;;;4.57;;
7531;SDS011;3807;49.030;8.714;2024-01-16T03:00:05;8.97;;;4.07;;
7531;SDS011;3807;49.030;8.714;2024-01-16T03:02:32;6.33;;;3.93;;
7531;SDS011;3807;49.030;8.714;2024-01-16T03:04:58;7.57;;;4.37;;
7531;SDS011;3807;49.030;8.714;2024-01-16T03:07:24;5.33;;;3.23;;
7531;SDS011;3807;49.030;8.714;2024-01-16T03:09:49;6.47;;;4.40;;
7531;SDS011;3807;49.030;8.714;2024-01-16T03:12:15;7.97;;;4.87;;
7531;SDS011;3807;49.030;8.714;2024-01-16T03:14:40;9.17;;;4.33;;
7531;SDS011;3807;49.030;8.714;2024-01-16T03:17:06;6.73;;;3.60;;
7531;SDS011;3807;49.030;8.714;2024-01-16T03:19:32;10.37;;;4.17;;
7531;SDS011;3807;49.030;8.714;2024-01-16T03:21:57;14.20;;;4.40;;
7531;SDS011;3807;49.030;8.714;2024-01-16T03:24:23;8.33;;;4.40;;
7531;SDS011;3807;49.030;8.714;2024-01-16T03:26:48;8.60;;;4.90;;
7531;SDS011;3807;49.030;8.714;2024-01-16T03:29:14;6.17;;;3.93;;
7531;SDS011;3807;49.030;8.714;2024-01-16T03:31:39;10.17;;;4.53;;
7531;SDS011;3807;49.030;8.714;2024-01-16T03:34:04;5.50;;;3.77;;
7531;SDS011;3807;49.030;8.714;2024-01-16T03:36:30;6.07;;;4.03;;
7531;SDS011;3807;49.030;8.714;2024-01-16T03:38:56;7.27;;;4.40;;
7531;SDS011;3807;49.030;8.714;2024-01-16T03:41:22;6.13;;;4.17;;
7531;SDS011;3807;49.030;8.714;2024-01-16T03:43:47;9.97;;;4.80;;
7531;SDS011;3807;49.030;8.714;2024-01-16T03:46:12;9.87;;;4.33;;
7531;SDS011;3807;49.030;8.714;2024-01-16T03:48:38;4.47;;;3.70;;
7531;SDS011;3807;49.030;8.714;2024-01-16T03:51:04;6.77;;;4.40;;
7531;SDS011;3807;49.030;8.714;2024-01-16T03:53:30;6.30;;;3.73;;
7531;SDS011;3807;49.030;8.714;2024-01-16T03:55:56;12.73;;;5.37;;
7531;SDS011;3807;49.030;8.714;2024-01-16T03:58:21;7.97;;;4.47;;
7531;SDS011;3807;49.030;8.714;2024-01-16T04:00:47;5.63;;;3.70;;
7531;SDS011;3807;49.030;8.714;2024-01-16T04:03:15;7.23;;;4.27;;
7531;SDS011;3807;49.030;8.714;2024-01-16T04:05:40;7.57;;;4.60;;
7531;SDS011;3807;49.030;8.714;2024-01-16T04:08:06;7.77;;;4.43;;
7531;SDS011;3807;49.030;8.714;2024-01-16T04:10:31;7.17;;;4.67;;
7531;SDS011;3807;49.030;8.714;2024-01-16T04:12:59;7.80;;;4.00;;
7531;SDS011;3807;49.030;8.714;2024-01-16T04:15:25;8.17;;;4.00;;
7531;SDS011;3807;49.030;8.714;2024-01-16T04:17:51;7.97;;;4.47;;
7531;SDS011;3807;49.030;8.714;2024-01-16T04:20:16;8.13;;;3.93;;
7531;SDS011;3807;49.030;8.714;2024-01-16T04:22:41;6.77;;;4.13;;
7531;SDS011;3807;49.030;8.714;2024-01-16T04:25:07;7.43;;;4.10;;
7531;SDS011;3807;49.030;8.714;2024-01-16T04:27:32;6.90;;;4.20;;
7531;SDS011;3807;49.030;8.714;2024-01-16T04:29:58;5.87;;;3.80;;
7531;SDS011;3807;49.030;8.714;2024-01-16T04:32:23;8.23;;;4.73;;
7531;SDS011;3807;49.030;8.714;2024-01-16T04:34:49;9.57;;;5.50;;
7531;SDS011;3807;49.030;8.714;2024-01-16T04:37:14;12.97;;;5.97;;
7531;SDS011;3807;49.030;8.714;2024-01-16T04:39:39;12.53;;;6.13;;
7531;SDS011;3807;49.030;8.714;2024-01-16T04:42:05;12.10;;;5.80;;
7531;SDS011;3807;49.030;8.714;2024-01-16T04:44:30;22.60;;;10.73;;
7531;SDS011;3807;49.030;8.714;2024-01-16T04:46:55;9.90;;;5.50;;
7531;SDS011;3807;49.030;8.714;2024-01-16T04:49:21;11.03;;;5.97;;
7531;SDS011;3807;49.030;8.714;2024-01-16T04:51:46;10.83;;;5.47;;
7531;SDS011;3807;49.030;8.714;2024-01-16T04:54:12;8.40;;;4.67;;
7531;SDS011;3807;49.030;8.714;2024-01-16T04:56:37;9.63;;;4.60;;
7531;SDS011;3807;49.030;8.714;2024-01-16T04:59:03;10.47;;;4.03;;
7531;SDS011;3807;49.030;8.714;2024-01-16T05:01:28;4.47;;;3.63;;
7531;SDS011;3807;49.030;8.714;2024-01-16T05:03:53;6.07;;;3.93;;
7531;SDS011;3807;49.030;8.714;2024-01-16T05:06:19;9.17;;;4.83;;
7531;SDS011;3807;49.030;8.714;2024-01-16T05:08:45;8.43;;;4.40;;
7531;SDS011;3807;49.030;8.714;2024-01-16T05:11:10;8.73;;;4.47;;
7531;SDS011;3807;49.030;8.714;2024-01-16T05:13:36;8.97;;;4.10;;
7531;SDS011;3807;49.030;8.714;2024-01-16T05:16:01;9.87;;;4.53;;
7531;SDS011;3807;49.030;8.714;2024-01-16T05:18:26;8.77;;;5.57;;
7531;SDS011;3807;49.030;8.714;2024-01-16T05:20:52;13.00;;;6.47;;
7531;SDS011;3807;49.030;8.714;2024-01-16T05:23:17;15.93;;;7.70;;
7531;SDS011;3807;49.030;8.714;2024-01-16T05:25:43;11.30;;;5.57;;
7531;SDS011;3807;49.030;8.714;2024-01-16T05:28:09;9.40;;;4.67;;
7531;SDS011;3807;49.030;8.714;2024-01-16T05:30:35;7.20;;;4.90;;
7531;SDS011;3807;49.030;8.714;2024-01-16T05:33:00;12.73;;;6.23;;
7531;SDS011;3807;49.030;8.714;2024-01-16T05:35:28;15.50;;;6.70;;
7531;SDS011;3807;49.030;8.714;2024-01-16T05:37:53;12.40;;;5.93;;
7531;SDS011;3807;49.030;8.714;2024-01-16T05:40:20;7.83;;;4.73;;
7531;SDS011;3807;49.030;8.714;2024-01-16T05:42:46;7.20;;;4.00;;
7531;SDS011;3807;49.030;8.714;2024-01-16T05:45:12;9.80;;;5.50;;
7531;SDS011;3807;49.030;8.714;2024-01-16T05:47:38;8.30;;;4.33;;
7531;SDS011;3807;49.030;8.714;2024-01-16T05:50:04;8.67;;;4.57;;
7531;SDS011;3807;49.030;8.714;2024-01-16T05:52:30;8.37;;;4.47;;
7531;SDS011;3807;49.030;8.714;2024-01-16T05:54:55;6.47;;;3.87;;
7531;SDS011;3807;49.030;8.714;2024-01-16T05:57:22;7.63;;;4.03;;
7531;SDS011;3807;49.030;8.714;2024-01-16T05:59:48;6.07;;;4.10;;
7531;SDS011;3807;49.030;8.714;2024-01-16T06:02:13;8.37;;;3.77;;
7531;SDS011;3807;49.030;8.714;2024-01-16T06:04:39;9.63;;;4.30;;
7531;SDS011;3807;49.030;8.714;2024-01-16T06:07:04;9.93;;;5.40;;
7531;SDS011;3807;49.030;8.714;2024-01-16T06:09:32;12.20;;;4.73;;
7531;SDS011;3807;49.030;8.714;2024-01-16T06:11:57;7.80;;;4.60;;
7531;SDS011;3807;49.030;8.714;2024-01-16T06:14:23;8.27;;;5.17;;
7531;SDS011;3807;49.030;8.714;2024-01-16T06:16:48;8.07;;;5.23;;
7531;SDS011;3807;49.030;8.714;2024-01-16T06:19:13;11.37;;;6.27;;
7531;SDS011;3807;49.030;8.714;2024-01-16T06:21:39;9.80;;;4.57;;
7531;SDS011;3807;49.030;8.714;2024-01-16T06:24:05;7.93;;;4.33;;
7531;SDS011;3807;49.030;8.714;2024-01-16T06:26:31;8.97;;;5.07;;
7531;SDS011;3807;49.030;8.714;2024-01-16T06:28:57;6.07;;;3.90;;
7531;SDS011;3807;49.030;8.714;2024-01-16T06:31:22;10.27;;;4.83;;
7531;SDS011;3807;49.030;8.714;2024-01-16T06:33:48;9.37;;;4.40;;
7531;SDS011;3807;49.030;8.714;2024-01-16T06:36:14;5.87;;;3.97;;
7531;SDS011;3807;49.030;8.714;2024-01-16T06:38:39;12.27;;;5.70;;
7531;SDS011;3807;49.030;8.714;2024-01-16T06:41:05;9.13;;;5.27;;
7531;SDS011;3807;49.030;8.714;2024-01-16T06:43:31;8.20;;;4.83;;
7531;SDS011;3807;49.030;8.714;2024-01-16T06:45:56;5.53;;;3.97;;
7531;SDS011;3807;49.030;8.714;2024-01-16T06:48:22;6.37;;;4.70;;
7531;SDS011;3807;49.030;8.714;2024-01-16T06:50:47;5.97;;;3.63;;
7531;SDS011;3807;49.030;8.714;2024-01-16T06:53:13;8.23;;;4.57;;
7531;SDS011;3807;49.030;8.714;2024-01-16T06:55:38;6.10;;;4.07;;
7531;SDS011;3807;49.030;8.714;2024-01-16T06:58:03;6.23;;;4.13;;
7531;SDS011;3807;49.030;8.714;2024-01-16T07:00:29;10.90;;;4.60;;
7531;SDS011;3807;49.030;8.714;2024-01-16T07:02:54;8.50;;;4.57;;
7531;SDS011;3807;49.030;8.714;2024-01-16T07:05:20;14.97;;;6.60;;
7531;SDS011;3807;49.030;8.714;2024-01-16T07:07:46;10.83;;;6.07;;
7531;SDS011;3807;49.030;8.714;2024-01-16T07:10:12;12.03;;;5.57;;
7531;SDS011;3807;49.030;8.714;2024-01-16T07:12:43;13.53;;;6.47;;
7531;SDS011;3807;49.030;8.714;2024-01-16T07:15:12;11.13;;;4.97;;
7531;SDS011;3807;49.030;8.714;2024-01-16T07:17:38;16.30;;;6.67;;
7531;SDS011;3807;49.030;8.714;2024-01-16T07:20:04;13.10;;;7.07;;
7531;SDS011;3807;49.030;8.714;2024-01-16T07:22:30;16.27;;;7.10;;
7531;SDS011;3807;49.030;8.714;2024-01-16T07:24:55;10.83;;;5.23;;
7531;SDS011;3807;49.030;8.714;2024-01-16T07:27:20;5.50;;;4.20;;
7531;SDS011;3807;49.030;8.714;2024-01-16T07:29:45;8.67;;;5.10;;
7531;SDS011;3807;49.030;8.714;2024-01-16T07:32:11;9.03;;;4.93;;
7531;SDS011;3807;49.030;8.714;2024-01-16T07:34:36;8.10;;;4.77;;
7531;SDS011;3807;49.030;8.714;2024-01-16T07:37:02;7.73;;;5.03;;
7531;SDS011;3807;49.030;8.714;2024-01-16T07:39:27;9.80;;;5.07;;
7531;SDS011;3807;49.030;8.714;2024-01-16T07:41:53;13.93;;;6.00;;
7531;SDS011;3807;49.030;8.714;2024-01-16T07:44:18;6.33;;;4.77;;
7531;SDS011;3807;49.030;8.714;2024-01-16T07:46:44;15.40;;;5.80;;
7531;SDS011;3807;49.030;8.714;2024-01-16T07:49:09;10.60;;;5.53;;
7531;SDS011;3807;49.030;8.714;2024-01-16T07:51:35;13.97;;;5.80;;
7531;SDS011;3807;49.030;8.714;2024-01-16T07:54:06;13.47;;;5.70;;
7531;SDS011;3807;49.030;8.714;2024-01-16T07:56:33;10.30;;;5.33;;
7531;SDS011;3807;49.030;8.714;2024-01-16T07:59:00;18.23;;;5.80;;
7531;SDS011;3807;49.030;8.714;2024-01-16T08:01:26;6.70;;;4.83;;
7531;SDS011;3807;49.030;8.714;2024-01-16T08:03:53;8.57;;;5.10;;
7531;SDS011;3807;49.030;8.714;2024-01-16T08:06:19;14.07;;;6.13;;
7531;SDS011;3807;49.030;8.714;2024-01-16T08:08:44;16.03;;;5.67;;
7531;SDS011;3807;49.030;8.714;2024-01-16T08:11:09;12.63;;;5.13;;
7531;SDS011;3807;49.030;8.714;2024-01-16T08:13:35;15.87;;;6.30;;
7531;SDS011;3807;49.030;8.714;2024-01-16T08:16:00;12.27;;;5.53;;
7531;SDS011;3807;49.030;8.714;2024-01-16T08:18:26;19.00;;;5.70;;
7531;SDS011;3807;49.030;8.714;2024-01-16T08:20:51;14.03;;;6.07;;
7531;SDS011;3807;49.030;8.714;2024-01-16T08:23:17;11.90;;;6.00;;
7531;SDS011;3807;49.030;8.714;2024-01-16T08:25:42;11.37;;;5.87;;
7531;SDS011;3807;49.030;8.714;2024-01-16T08:28:07;11.53;;;6.37;;
7531;SDS011;3807;49.030;8.714;2024-01-16T08:30:33;18.97;;;6.20;;
7531;SDS011;3807;49.030;8.714;2024-01-16T08:32:58;20.87;;;6.90;;
7531;SDS011;3807;49.030;8.714;2024-01-16T08:35:23;26.13;;;6.30;;
7531;SDS011;3807;49.030;8.714;2024-01-16T08:37:49;17.97;;;6.57;;
7531;SDS011;3807;49.030;8.714;2024-01-16T08:40:15;20.93;;;6.10;;
7531;SDS011;3807;49.030;8.714;2024-01-16T08:42:40;20.57;;;6.70;;
7531;SDS011;3807;49.030;8.714;2024-01-16T08:45:06;18.17;;;6.43;;
7531;SDS011;3807;49.030;8.714;2024-01-16T08:47:31;11.53;;;6.50;;
7531;SDS011;3807;49.030;8.714;2024-01-16T08:49:57;19.77;;;5.97;;
7531;SDS011;3807;49.030;8.714;2024-01-16T08:52:22;22.90;;;7.43;;
7531;SDS011;3807;49.030;8.714;2024-01-16T08:54:47;18.03;;;8.00;;
7531;SDS011;3807;49.030;8.714;2024-01-16T08:57:13;28.83;;;7.20;;
7531;SDS011;3807;49.030;8.714;2024-01-16T08:59:40;17.70;;;7.60;;
7531;SDS011;3807;49.030;8.714;2024-01-16T09:02:05;26.33;;;6.87;;
7531;SDS011;3807;49.030;8.714;2024-01-16T09:04:31;19.27;;;6.70;;
7531;SDS011;3807;49.030;8.714;2024-01-16T09:06:56;15.40;;;6.57;;
7531;SDS011;3807;49.030;8.714;2024-01-16T09:09:21;12.23;;;6.27;;
7531;SDS011;3807;49.030;8.714;2024-01-16T09:11:47;15.73;;;6.60;;
7531;SDS011;3807;49.030;8.714;2024-01-16T09:14:12;21.30;;;6.63;;
7531;SDS011;3807;49.030;8.714;2024-01-16T09:16:37;24.83;;;9.87;;
7531;SDS011;3807;49.030;8.714;2024-01-16T09:19:03;17.93;;;9.20;;
7531;SDS011;3807;49.030;8.714;2024-01-16T09:21:29;23.30;;;8.47;;
7531;SDS011;3807;49.030;8.714;2024-01-16T09:23:54;18.47;;;6.37;;
7531;SDS011;3807;49.030;8.714;2024-01-16T09:26:20;17.80;;;6.90;;
7531;SDS011;3807;49.030;8.714;2024-01-16T09:28:45;36.57;;;8.30;;
7531;SDS011;3807;49.030;8.714;2024-01-16T09:31:11;21.97;;;8.20;;
7531;SDS011;3807;49.030;8.714;2024-01-16T09:33:36;29.57;;;7.80;;
7531;SDS011;3807;49.030;8.714;2024-01-16T09:36:02;14.93;;;6.97;;
7531;SDS011;3807;49.030;8.714;2024-01-16T09:38:27;12.83;;;6.70;;
7531;SDS011;3807;49.030;8.714;2024-01-16T09:40:53;15.47;;;7.27;;
7531;SDS011;3807;49.030;8.714;2024-01-16T09:43:21;12.60;;;5.73;;
7531;SDS011;3807;49.030;8.714;2024-01-16T09:45:48;8.47;;;5.83;;
7531;SDS011;3807;49.030;8.714;2024-01-16T09:48:16;14.87;;;7.20;;
7531;SDS011;3807;49.030;8.714;2024-01-16T09:50:41;31.53;;;7.97;;
7531;SDS011;3807;49.030;8.714;2024-01-16T09:53:07;19.97;;;8.10;;
7531;SDS011;3807;49.030;8.714;2024-01-16T09:55:32;23.03;;;8.10;;
7531;SDS011;3807;49.030;8.714;2024-01-16T09:57:57;21.80;;;7.00;;
7531;SDS011;3807;49.030;8.714;2024-01-16T10:00:24;27.57;;;7.57;;
7531;SDS011;3807;49.030;8.714;2024-01-16T10:02:51;20.57;;;6.93;;
7531;SDS011;3807;49.030;8.714;2024-01-16T10:05:18;19.43;;;7.30;;
7531;SDS011;3807;49.030;8.714;2024-01-16T10:07:43;12.40;;;5.97;;
7531;SDS011;3807;49.030;8.714;2024-01-16T10:10:11;18.10;;;6.87;;
7531;SDS011;3807;49.030;8.714;2024-01-16T10:12:37;12.87;;;6.83;;
7531;SDS011;3807;49.030;8.714;2024-01-16T10:15:06;33.30;;;9.20;;
7531;SDS011;3807;49.030;8.714;2024-01-16T10:17:39;20.77;;;9.10;;
7531;SDS011;3807;49.030;8.714;2024-01-16T10:20:06;21.37;;;8.17;;
7531;SDS011;3807;49.030;8.714;2024-01-16T10:22:32;13.37;;;7.07;;
7531;SDS011;3807;49.030;8.714;2024-01-16T10:25:08;20.07;;;8.83;;
7531;SDS011;3807;49.030;8.714;2024-01-16T10:27:34;10.03;;;4.87;;
7531;SDS011;3807;49.030;8.714;2024-01-16T10:30:01;12.17;;;5.97;;
7531;SDS011;3807;49.030;8.714;2024-01-16T10:32:36;6.63;;;3.93;;
7531;SDS011;3807;49.030;8.714;2024-01-16T10:35:07;8.20;;;3.80;;
7531;SDS011;3807;49.030;8.714;2024-01-16T10:37:48;16.93;;;6.70;;
7531;SDS011;3807;49.030;8.714;2024-01-16T10:40:18;10.93;;;4.17;;
7531;SDS011;3807;49.030;8.714;2024-01-16T10:43:05;9.17;;;4.67;;
7531;SDS011;3807;49.030;8.714;2024-01-16T10:45:30;13.10;;;4.80;;
7531;SDS011;3807;49.030;8.714;2024-01-16T10:48:03;10.17;;;4.23;;
7531;SDS011;3807;49.030;8.714;2024-01-16T10:50:30;6.20;;;3.43;;
7531;SDS011;3807;49.030;8.714;2024-01-16T10:52:55;7.93;;;4.03;;
7531;SDS011;3807;49.030;8.714;2024-01-16T10:55:24;11.17;;;4.70;;
7531;SDS011;3807;49.030;8.714;2024-01-16T10:57:53;5.50;;;3.40;;
7531;SDS011;3807;49.030;8.714;2024-01-16T11:00:21;8.20;;;3.73;;
7531;SDS011;3807;49.030;8.714;2024-01-16T11:02:51;6.33;;;4.07;;
7531;SDS011;3807;49.030;8.714;2024-01-16T11:05:25;9.20;;;4.43;;
7531;SDS011;3807;49.030;8.714;2024-01-16T11:07:53;6.20;;;3.50;;
7531;SDS011;3807;49.030;8.714;2024-01-16T11:10:20;10.17;;;4.67;;
7531;SDS011;3807;49.030;8.714;2024-01-16T11:12:46;8.23;;;3.80;;
7531;SDS011;3807;49.030;8.714;2024-01-16T11:15:13;7.50;;;4.00;;
7531;SDS011;3807;49.030;8.714;2024-01-16T11:17:39;3.70;;;2.53;;
7531;SDS011;3807;49.030;8.714;2024-01-16T11:20:08;8.07;;;4.63;;
7531;SDS011;3807;49.030;8.714;2024-01-16T11:22:37;5.03;;;3.33;;
7531;SDS011;3807;49.030;8.714;2024-01-16T11:25:07;5.23;;;3.40;;
7531;SDS011;3807;49.030;8.714;2024-01-16T11:27:35;9.10;;;3.97;;
7531;SDS011;3807;49.030;8.714;2024-01-16T11:30:01;6.70;;;3.80;;
7531;SDS011;3807;49.030;8.714;2024-01-16T11:33:00;7.40;;;3.53;;
7531;SDS011;3807;49.030;8.714;2024-01-16T11:35:18;7.00;;;4.23;;
7531;SDS011;3807;49.030;8.714;2024-01-16T11:38:15;6.77;;;3.40;;
7531;SDS011;3807;49.030;8.714;2024-01-16T11:40:41;7.07;;;3.30;;
7531;SDS011;3807;49.030;8.714;2024-01-16T11:43:41;8.83;;;3.60;;
7531;SDS011;3807;49.030;8.714;2024-01-16T11:46:01;5.40;;;3.60;;
7531;SDS011;3807;49.030;8.714;2024-01-16T11:48:33;7.57;;;3.80;;
7531;SDS011;3807;49.030;8.714;2024-01-16T11:50:59;13.70;;;3.60;;
7531;SDS011;3807;49.030;8.714;2024-01-16T11:53:34;4.23;;;2.40;;
7531;SDS011;3807;49.030;8.714;2024-01-16T11:56:28;10.87;;;3.80;;
7531;SDS011;3807;49.030;8.714;2024-01-16T11:59:18;5.17;;;3.13;;
7531;SDS011;3807;49.030;8.714;2024-01-16T12:02:00;3.43;;;2.67;;
7531;SDS011;3807;49.030;8.714;2024-01-16T12:04:30;8.03;;;3.50;;
7531;SDS011;3807;49.030;8.714;2024-01-16T12:06:59;11.63;;;3.87;;
7531;SDS011;3807;49.030;8.714;2024-01-16T12:09:28;6.47;;;3.47;;
7531;SDS011;3807;49.030;8.714;2024-01-16T12:11:58;4.40;;;3.13;;
7531;SDS011;3807;49.030;8.714;2024-01-16T12:14:28;5.23;;;3.60;;
7531;SDS011;3807;49.030;8.714;2024-01-16T12:17:12;5.20;;;3.50;;
7531;SDS011;3807;49.030;8.714;2024-01-16T12:19:38;5.93;;;3.60;;
7531;SDS011;3807;49.030;8.714;2024-01-16T12:22:09;10.47;;;3.57;;
7531;SDS011;3807;49.030;8.714;2024-01-16T12:24:35;6.00;;;3.30;;
7531;SDS011;3807;49.030;8.714;2024-01-16T12:27:02;6.70;;;3.33;;
7531;SDS011;3807;49.030;8.714;2024-01-16T12:29:27;7.33;;;3.40;;
7531;SDS011;3807;49.030;8.714;2024-01-16T12:32:13;4.87;;;3.10;;
7531;SDS011;3807;49.030;8.714;2024-01-16T12:34:43;10.10;;;3.70;;
7531;SDS011;3807;49.030;8.714;2024-01-16T12:37:13;5.57;;;3.40;;
7531;SDS011;3807;49.030;8.714;2024-01-16T12:39:39;5.03;;;3.40;;
7531;SDS011;3807;49.030;8.714;2024-01-16T12:42:06;5.37;;;3.60;;
7531;SDS011;3807;49.030;8.714;2024-01-16T12:44:34;5.90;;;3.30;;
7531;SDS011;3807;49.030;8.714;2024-01-16T12:47:00;12.87;;;3.73;;
7531;SDS011;3807;49.030;8.714;2024-01-16T12:49:27;10.47;;;3.03;;
7531;SDS011;3807;49.030;8.714;2024-01-16T12:52:13;9.03;;;3.60;;
7531;SDS011;3807;49.030;8.714;2024-01-16T12:54:46;10.43;;;3.53;;
7531;SDS011;3807;49.030;8.714;2024-01-16T12:57:21;7.20;;;3.40;;
7531;SDS011;3807;49.030;8.714;2024-01-16T12:59:47;4.97;;;2.87;;
7531;SDS011;3807;49.030;8.714;2024-01-16T13:02:20;4.33;;;3.10;;
7531;SDS011;3807;49.030;8.714;2024-01-16T13:04:47;15.10;;;3.00;;
7531;SDS011;3807;49.030;8.714;2024-01-16T13:07:15;5.23;;;3.17;;
7531;SDS011;3807;49.030;8.714;2024-01-16T13:09:41;10.70;;;4.87;;
7531;SDS011;3807;49.030;8.714;2024-01-16T13:12:07;9.17;;;3.43;;
7531;SDS011;3807;49.030;8.714;2024-01-16T13:14:32;4.93;;;2.60;;
7531;SDS011;3807;49.030;8.714;2024-01-16T13:16:58;5.63;;;3.13;;
7531;SDS011;3807;49.030;8.714;2024-01-16T13:19:26;5.87;;;2.77;;
7531;SDS011;3807;49.030;8.714;2024-01-16T13:21:51;5.50;;;3.03;;
7531;SDS011;3807;49.030;8.714;2024-01-16T13:24:17;2.73;;;2.37;;
7531;SDS011;3807;49.030;8.714;2024-01-16T13:26:46;3.73;;;2.47;;
7531;SDS011;3807;49.030;8.714;2024-01-16T13:29:11;6.60;;;2.57;;
7531;SDS011;3807;49.030;8.714;2024-01-16T13:31:37;5.13;;;2.87;;
7531;SDS011;3807;49.030;8.714;2024-01-16T13:34:03;4.63;;;2.87;;
7531;SDS011;3807;49.030;8.714;2024-01-16T13:36:29;6.23;;;2.60;;
7531;SDS011;3807;49.030;8.714;2024-01-16T13:38:55;6.73;;;2.63;;
7531;SDS011;3807;49.030;8.714;2024-01-16T13:41:20;7.60;;;2.43;;
7531;SDS011;3807;49.030;8.714;2024-01-16T13:43:46;8.90;;;2.93;;
7531;SDS011;3807;49.030;8.714;2024-01-16T13:46:14;5.90;;;2.63;;
7531;SDS011;3807;49.030;8.714;2024-01-16T13:48:40;4.03;;;2.70;;
7531;SDS011;3807;49.030;8.714;2024-01-16T13:51:06;4.83;;;2.87;;
7531;SDS011;3807;49.030;8.714;2024-01-16T13:53:32;2.97;;;2.27;;
7531;SDS011;3807;49.030;8.714;2024-01-16T13:55:57;7.33;;;2.93;;
7531;SDS011;3807;49.030;8.714;2024-01-16T13:58:23;6.60;;;3.80;;
7531;SDS011;3807;49.030;8.714;2024-01-16T14:00:49;5.90;;;3.33;;
7531;SDS011;3807;49.030;8.714;2024-01-16T14:03:14;10.50;;;3.20;;
7531;SDS011;3807;49.030;8.714;2024-01-16T14:05:39;7.73;;;3.30;;
7531;SDS011;3807;49.030;8.714;2024-01-16T14:08:07;6.57;;;3.40;;
7531;SDS011;3807;49.030;8.714;2024-01-16T14:10:33;5.00;;;3.03;;
7531;SDS011;3807;49.030;8.714;2024-01-16T14:12:58;5.43;;;2.70;;
7531;SDS011;3807;49.030;8.714;2024-01-16T14:15:24;7.93;;;3.07;;
7531;SDS011;3807;49.030;8.714;2024-01-16T14:17:50;6.17;;;2.83;;
7531;SDS011;3807;49.030;8.714;2024-01-16T14:20:19;5.20;;;3.00;;
7531;SDS011;3807;49.030;8.714;2024-01-16T14:22:48;8.17;;;3.13;;
7531;SDS011;3807;49.030;8.714;2024-01-16T14:25:14;5.63;;;2.87;;
7531;SDS011;3807;49.030;8.714;2024-01-16T14:27:40;7.47;;;3.37;;
7531;SDS011;3807;49.030;8.714;2024-01-16T14:30:07;4.37;;;3.13;;
7531;SDS011;3807;49.030;8.714;2024-01-16T14:32:35;6.00;;;3.10;;
7531;SDS011;3807;49.030;8.714;2024-01-16T14:35:03;3.77;;;2.70;;
7531;SDS011;3807;49.030;8.714;2024-01-16T14:37:30;10.13;;;3.93;;
7531;SDS011;3807;49.030;8.714;2024-01-16T14:39:55;11.83;;;3.90;;
7531;SDS011;3807;49.030;8.714;2024-01-16T14:42:20;7.90;;;3.10;;
7531;SDS011;3807;49.030;8.714;2024-01-16T14:44:47;6.90;;;2.80;;
7531;SDS011;3807;49.030;8.714;2024-01-16T14:47:12;11.17;;;3.43;;
7531;SDS011;3807;49.030;8.714;2024-01-16T14:49:38;6.03;;;3.00;;
7531;SDS011;3807;49.030;8.714;2024-01-16T14:52:03;4.87;;;2.70;;
7531;SDS011;3807;49.030;8.714;2024-01-16T14:54:29;6.27;;;2.93;;
7531;SDS011;3807;49.030;8.714;2024-01-16T14:56:54;7.10;;;3.20;;
7531;SDS011;3807;49.030;8.714;2024-01-16T14:59:20;4.97;;;2.73;;
7531;SDS011;3807;49.030;8.714;2024-01-16T15:01:45;7.90;;;2.80;;
7531;SDS011;3807;49.030;8.714;2024-01-16T15:04:10;9.50;;;3.00;;
7531;SDS011;3807;49.030;8.714;2024-01-16T15:06:36;4.47;;;2.67;;
7531;SDS011;3807;49.030;8.714;2024-01-16T15:09:02;6.37;;;3.13;;